createdAt,value
2022-10-05T00:01:30.389Z,65.92
2022-10-05T00:04:11.365Z,65.72
2022-10-05T00:06:39.548Z,61.27
2022-10-05T00:09:18.073Z,56.71
2022-10-05T00:11:46.948Z,56.24
2022-10-05T00:14:18.690Z,57.74
2022-10-05T00:16:47.806Z,59.14
2022-10-05T00:19:34.062Z,60.05
2022-10-05T00:22:10.782Z,65.88
2022-10-05T00:24:39.270Z,65.39
2022-10-05T00:27:13.078Z,63.99
2022-10-05T00:29:45.041Z,65.05
2022-10-05T00:32:13.919Z,62.24
2022-10-05T00:34:43.454Z,57.88
2022-10-05T00:37:12.068Z,56.67
2022-10-05T00:39:41.617Z,58.20
2022-10-05T00:42:26.075Z,59.57
2022-10-05T00:45:13.701Z,60.43
2022-10-05T00:47:41.767Z,65.38
2022-10-05T00:50:47.645Z,65.94
2022-10-05T00:53:31.134Z,63.64
2022-10-05T00:56:14.389Z,60.67
2022-10-05T00:59:22.773Z,57.30
2022-10-05T01:02:24.585Z,57.08
2022-10-05T01:05:02.985Z,58.50
2022-10-05T01:07:50.301Z,59.62
2022-10-05T01:10:42.896Z,64.64
2022-10-05T01:13:30.484Z,64.98
2022-10-05T01:16:10.887Z,59.82
2022-10-05T01:19:20.586Z,55.14
2022-10-05T01:22:00.231Z,55.53
2022-10-05T01:24:45.248Z,57.74
2022-10-05T01:27:49.023Z,58.92
2022-10-05T01:30:22.193Z,65.72
2022-10-05T01:33:11.326Z,64.72
2022-10-05T01:36:02.575Z,60.39
2022-10-05T01:38:36.483Z,56.32
2022-10-05T01:41:46.104Z,56.55
2022-10-05T01:44:25.887Z,57.99
2022-10-05T01:47:00.257Z,59.56
2022-10-05T01:49:47.229Z,60.37
2022-10-05T01:52:43.925Z,65.90
2022-10-05T01:55:21.279Z,65.82
2022-10-05T01:58:16.820Z,61.42
2022-10-05T02:00:52.455Z,58.06
2022-10-05T02:03:38.283Z,57.68
2022-10-05T02:06:16.225Z,59.06
2022-10-05T02:08:49.862Z,60.36
2022-10-05T02:11:19.304Z,66.69
2022-10-05T02:14:10.751Z,66.46
2022-10-05T02:16:42.216Z,62.24
2022-10-05T02:19:35.980Z,57.66
2022-10-05T02:22:17.976Z,57.48
2022-10-05T02:24:53.289Z,59.20
2022-10-05T02:27:28.479Z,60.21
2022-10-05T02:30:03.071Z,65.81
2022-10-05T02:33:09.891Z,66.02
2022-10-05T02:35:38.073Z,61.55
2022-10-05T02:38:11.974Z,57.64
2022-10-05T02:41:06.193Z,57.09
2022-10-05T02:43:40.890Z,58.26
2022-10-05T02:46:29.197Z,59.94
2022-10-05T02:49:12.683Z,65.97
2022-10-05T02:52:14.675Z,68.38
2022-10-05T02:55:15.947Z,64.15
2022-10-05T02:58:12.314Z,60.97
2022-10-05T03:00:55.600Z,58.31
2022-10-05T03:03:38.252Z,58.70
2022-10-05T03:06:25.895Z,60.24
2022-10-05T03:08:59.915Z,65.83
2022-10-05T03:11:50.473Z,66.16
2022-10-05T03:14:27.992Z,63.04
2022-10-05T03:17:14.561Z,61.13
2022-10-05T03:19:59.884Z,60.57
2022-10-05T03:22:56.797Z,60.12
2022-10-05T03:25:39.337Z,56.58
2022-10-05T03:28:22.222Z,56.92
2022-10-05T03:30:59.505Z,58.37
2022-10-05T03:33:35.602Z,59.15
2022-10-05T03:36:07.052Z,63.75
2022-10-05T03:39:00.934Z,66.79
2022-10-05T03:41:43.338Z,66.52
2022-10-05T03:44:24.390Z,64.75
2022-10-05T03:46:58.634Z,63.07
2022-10-05T03:49:50.147Z,62.75
2022-10-05T03:52:39.137Z,62.32
2022-10-05T03:55:31.865Z,61.55
2022-10-05T03:58:15.095Z,60.66
2022-10-05T04:00:54.211Z,60.23
2022-10-05T04:03:49.329Z,59.67
2022-10-05T04:06:25.025Z,57.69
2022-10-05T04:09:06.088Z,57.89
2022-10-05T04:11:40.434Z,58.30
2022-10-05T04:14:28.714Z,58.87
2022-10-05T04:17:04.612Z,64.30
2022-10-05T04:20:00.908Z,66.98
2022-10-05T04:22:37.477Z,64.04
2022-10-05T04:25:24.281Z,62.21
2022-10-05T04:28:11.854Z,61.35
2022-10-05T04:30:45.057Z,60.52
2022-10-05T04:33:13.999Z,59.69
2022-10-05T04:36:15.924Z,57.68
2022-10-05T04:39:02.885Z,57.67
2022-10-05T04:42:04.947Z,59.18
2022-10-05T04:44:42.539Z,63.19
2022-10-05T04:47:14.254Z,65.20
2022-10-05T04:50:13.298Z,64.54
2022-10-05T04:53:34.104Z,64.03
2022-10-05T04:56:39.368Z,63.41
2022-10-05T04:59:49.005Z,62.65
2022-10-05T05:02:33.408Z,61.99
2022-10-05T05:05:01.846Z,60.82
2022-10-05T05:07:50.282Z,60.95
2022-10-05T05:10:49.398Z,57.79
2022-10-05T05:13:25.746Z,57.76
2022-10-05T05:15:57.260Z,59.40
2022-10-05T05:18:50.341Z,60.28
2022-10-05T05:21:58.246Z,65.41
2022-10-05T05:24:55.021Z,65.99
2022-10-05T05:27:32.296Z,61.32
2022-10-05T05:30:14.109Z,58.43
2022-10-05T05:33:06.637Z,57.92
2022-10-05T05:36:05.947Z,59.08
2022-10-05T05:38:48.456Z,60.25
2022-10-05T05:41:29.521Z,63.28
2022-10-05T05:44:22.853Z,64.87
2022-10-05T05:47:05.445Z,64.56
2022-10-05T05:49:53.119Z,63.74
2022-10-05T05:52:49.772Z,64.21
2022-10-05T05:55:30.491Z,66.80
2022-10-05T05:58:28.309Z,63.58
2022-10-05T06:01:16.388Z,60.63
2022-10-05T06:03:58.040Z,56.97
2022-10-05T06:06:31.505Z,56.61
2022-10-05T06:09:11.789Z,58.03
2022-10-05T06:11:54.263Z,59.50
2022-10-05T06:14:25.960Z,64.27
2022-10-05T06:17:03.555Z,65.31
2022-10-05T06:19:36.821Z,62.74
2022-10-05T06:22:25.785Z,60.88
2022-10-05T06:25:17.841Z,56.73
2022-10-05T06:28:11.497Z,56.97
2022-10-05T06:31:02.957Z,58.33
2022-10-05T06:33:46.278Z,60.14
2022-10-05T06:36:22.642Z,66.25
2022-10-05T06:39:12.946Z,65.88
2022-10-05T06:42:05.729Z,63.21
2022-10-05T06:45:20.345Z,61.24
2022-10-05T06:48:10.218Z,59.96
2022-10-05T06:51:12.023Z,58.21
2022-10-05T06:53:48.184Z,57.71
2022-10-05T06:56:57.298Z,58.28
2022-10-05T06:59:51.395Z,59.39
2022-10-05T07:02:30.038Z,63.47
2022-10-05T07:05:10.857Z,66.27
2022-10-05T07:07:59.930Z,64.41
2022-10-05T07:10:44.172Z,60.98
2022-10-05T07:13:40.624Z,57.40
2022-10-05T07:16:32.166Z,56.22
2022-10-05T07:19:26.494Z,57.42
2022-10-05T07:22:30.536Z,58.46
2022-10-05T07:25:35.471Z,62.47
2022-10-05T07:28:15.726Z,63.19
2022-10-05T07:31:09.954Z,58.97
2022-10-05T07:33:51.904Z,58.77
2022-10-05T07:36:55.950Z,59.50
2022-10-05T07:39:58.537Z,60.78
2022-10-05T07:42:52.029Z,63.92
2022-10-05T07:45:25.410Z,63.49
2022-10-05T07:48:01.932Z,61.49
2022-10-05T07:51:03.610Z,59.15
2022-10-05T07:53:40.066Z,60.14
2022-10-05T07:56:21.647Z,62.01
2022-10-05T07:59:03.392Z,62.18
2022-10-05T08:01:37.713Z,62.13
2022-10-05T08:04:20.880Z,59.44
2022-10-05T08:06:53.971Z,58.45
2022-10-05T08:09:30.095Z,59.46
2022-10-05T08:12:31.324Z,60.34
2022-10-05T08:15:25.902Z,61.91
2022-10-05T08:18:01.837Z,63.01
2022-10-05T08:20:37.170Z,62.08
2022-10-05T08:23:19.739Z,60.96
2022-10-05T08:26:07.608Z,60.31
2022-10-05T08:28:38.952Z,59.75
2022-10-05T08:31:30.220Z,60.11
2022-10-05T08:34:21.315Z,61.12
2022-10-05T08:37:08.880Z,61.36
2022-10-05T08:39:49.487Z,61.98
2022-10-05T08:42:27.158Z,62.00
2022-10-05T08:44:59.170Z,62.02
2022-10-05T08:47:46.790Z,62.26
2022-10-05T08:50:35.446Z,62.32
2022-10-05T08:53:23.173Z,60.50
2022-10-05T08:56:28.423Z,59.16
2022-10-05T08:59:22.082Z,59.69
2022-10-05T09:02:00.213Z,60.24
2022-10-05T09:04:41.582Z,59.99
2022-10-05T09:07:24.096Z,60.10
2022-10-05T09:10:17.870Z,60.08
2022-10-05T09:12:59.141Z,60.22
2022-10-05T09:16:04.680Z,60.05
2022-10-05T09:18:52.438Z,60.02
2022-10-05T09:21:35.546Z,60.33
2022-10-05T09:24:09.070Z,60.47
2022-10-05T09:26:52.614Z,60.50
2022-10-05T09:29:46.465Z,60.28
2022-10-05T09:32:52.590Z,60.26
2022-10-05T09:35:49.846Z,60.47
2022-10-05T09:38:25.175Z,60.28
2022-10-05T09:41:12.496Z,60.42
2022-10-05T09:43:55.900Z,60.11
2022-10-05T09:46:45.944Z,59.58
2022-10-05T09:49:52.566Z,59.58
2022-10-05T09:52:46.382Z,59.51
2022-10-05T09:55:21.815Z,59.43
2022-10-05T09:58:12.787Z,59.42
2022-10-05T10:01:39.425Z,59.25
2022-10-05T10:04:26.132Z,58.33
2022-10-05T10:07:15.785Z,58.40
2022-10-05T10:09:54.000Z,58.25
2022-10-05T10:12:31.830Z,57.95
2022-10-05T10:15:38.756Z,57.60
2022-10-05T10:18:25.999Z,57.51
2022-10-05T10:21:18.763Z,57.14
2022-10-05T10:24:00.479Z,56.86
2022-10-05T10:27:18.118Z,56.87
2022-10-05T10:30:09.943Z,55.85
2022-10-05T10:33:13.974Z,56.07
2022-10-05T10:35:57.775Z,55.47
2022-10-05T10:38:36.873Z,55.63
2022-10-05T10:41:08.533Z,55.49
2022-10-05T10:43:37.132Z,54.97
2022-10-05T10:46:12.671Z,54.71
2022-10-05T10:49:03.849Z,54.40
2022-10-05T10:51:53.327Z,53.92
2022-10-05T10:54:25.106Z,54.58
2022-10-05T10:57:03.879Z,54.95
2022-10-05T10:59:44.555Z,55.11
2022-10-05T11:02:25.685Z,54.90
2022-10-05T11:05:15.476Z,54.08
2022-10-05T11:08:08.707Z,53.58
2022-10-05T11:10:59.080Z,53.75
2022-10-05T11:13:42.505Z,53.75
2022-10-05T11:16:23.083Z,53.89
2022-10-05T11:19:39.943Z,53.57
2022-10-05T11:22:51.886Z,53.50
2022-10-05T11:25:56.138Z,52.91
2022-10-05T11:28:52.156Z,52.57
2022-10-05T11:31:35.776Z,52.41
2022-10-05T11:34:10.256Z,51.41
2022-10-05T11:37:03.486Z,50.58
2022-10-05T11:39:56.192Z,49.94
2022-10-05T11:42:36.752Z,50.24
2022-10-05T11:45:25.080Z,50.22
2022-10-05T11:48:11.172Z,49.74
2022-10-05T11:51:10.393Z,49.86
2022-10-05T11:53:48.061Z,50.34
2022-10-05T11:59:26.805Z,50.21
2022-10-05T12:02:18.366Z,49.68
2022-10-05T12:05:21.469Z,49.52
2022-10-05T12:07:52.826Z,48.46
2022-10-05T12:10:44.978Z,48.57
2022-10-05T12:13:37.939Z,48.87
2022-10-05T12:16:27.119Z,48.58
2022-10-05T12:19:03.475Z,47.77
2022-10-05T12:21:34.031Z,46.81
2022-10-05T12:24:07.260Z,47.35
2022-10-05T12:26:55.636Z,47.15
2022-10-05T12:29:41.278Z,47.01
2022-10-05T12:32:29.590Z,46.95
2022-10-05T12:35:36.205Z,46.74
2022-10-05T12:38:19.781Z,46.04
2022-10-05T12:41:08.534Z,46.04
2022-10-05T12:44:04.234Z,46.48
2022-10-05T12:46:46.795Z,46.47
2022-10-05T12:49:36.235Z,46.69
2022-10-05T12:52:32.523Z,46.86
2022-10-05T12:55:12.994Z,46.84
2022-10-05T12:58:19.780Z,46.71
2022-10-05T13:00:57.580Z,46.30
2022-10-05T13:03:33.872Z,46.55
2022-10-05T13:06:17.175Z,46.51
2022-10-05T13:08:45.888Z,46.32
2022-10-05T13:11:33.114Z,45.97
2022-10-05T13:14:43.366Z,46.04
2022-10-05T13:17:37.642Z,46.06
2022-10-05T13:20:34.003Z,46.20
2022-10-05T13:23:08.295Z,46.33
2022-10-05T13:25:49.105Z,45.78
2022-10-05T13:28:37.765Z,45.52
2022-10-05T13:31:14.432Z,45.77
2022-10-05T13:33:48.689Z,45.86
2022-10-05T13:36:17.385Z,46.48
2022-10-05T13:39:29.265Z,46.83
2022-10-05T13:42:15.415Z,46.48
2022-10-05T13:45:17.019Z,46.55
2022-10-05T13:48:22.674Z,46.42
2022-10-05T13:51:08.923Z,46.59
2022-10-05T13:53:53.317Z,46.83
2022-10-05T13:56:26.134Z,47.01
2022-10-05T13:59:16.447Z,47.17
2022-10-05T14:02:12.733Z,47.62
2022-10-05T14:04:47.139Z,48.13
2022-10-05T14:07:30.305Z,48.38
2022-10-05T14:09:59.870Z,48.51
2022-10-05T14:12:28.944Z,48.51
2022-10-05T14:14:58.866Z,48.48
2022-10-05T14:17:33.445Z,48.50
2022-10-05T14:20:17.451Z,48.81
2022-10-05T14:22:53.532Z,49.40
2022-10-05T14:25:23.024Z,49.66
2022-10-05T14:28:30.897Z,49.94
2022-10-05T14:31:12.507Z,50.24
2022-10-05T14:33:44.329Z,50.53
2022-10-05T14:36:34.151Z,50.82
2022-10-05T14:39:05.618Z,51.13
2022-10-05T14:41:37.811Z,51.26
2022-10-05T14:44:09.615Z,51.53
2022-10-05T14:46:40.360Z,51.59
2022-10-05T14:49:21.510Z,51.55
2022-10-05T14:51:51.764Z,51.75
2022-10-05T14:54:57.667Z,51.85
2022-10-05T14:57:57.504Z,52.06
2022-10-05T15:00:31.448Z,52.37
2022-10-05T15:03:10.361Z,52.60
2022-10-05T15:06:01.731Z,52.78
2022-10-05T15:08:50.391Z,52.88
2022-10-05T15:11:52.849Z,53.04
2022-10-05T15:14:26.540Z,53.11
2022-10-05T15:17:02.939Z,53.33
2022-10-05T15:19:37.807Z,53.63
2022-10-05T15:22:42.093Z,53.88
2022-10-05T15:25:38.152Z,54.19
2022-10-05T15:28:34.365Z,54.37
2022-10-05T15:31:10.411Z,54.59
2022-10-05T15:33:50.568Z,54.71
2022-10-05T15:36:36.140Z,54.96
2022-10-05T15:39:20.157Z,55.29
2022-10-05T15:42:35.332Z,55.56
2022-10-05T15:45:11.711Z,55.77
2022-10-05T15:47:42.782Z,56.11
2022-10-05T15:50:14.504Z,56.46
2022-10-05T15:53:10.400Z,56.67
2022-10-05T15:55:59.704Z,56.84
2022-10-05T15:59:25.284Z,56.90
2022-10-05T16:02:01.100Z,56.91
2022-10-05T16:04:47.553Z,57.05
2022-10-05T16:07:50.768Z,57.10
2022-10-05T16:10:24.248Z,57.34
2022-10-05T16:13:22.490Z,57.56
2022-10-05T16:16:02.424Z,57.80
2022-10-05T16:18:50.988Z,58.02
2022-10-05T16:21:53.186Z,58.24
2022-10-05T16:24:50.692Z,58.48
2022-10-05T16:27:20.896Z,58.69
2022-10-05T16:30:02.473Z,59.06
2022-10-05T16:32:38.538Z,59.26
2022-10-05T16:35:36.541Z,59.73
2022-10-05T16:38:19.834Z,60.02
2022-10-05T16:41:03.888Z,60.18
2022-10-05T16:43:58.300Z,60.58
2022-10-05T16:46:40.144Z,60.70
2022-10-05T16:49:20.780Z,61.03
2022-10-05T16:51:59.163Z,61.44
2022-10-05T16:54:56.945Z,61.71
2022-10-05T16:57:41.510Z,61.96
2022-10-05T17:00:26.139Z,62.87
2022-10-05T17:02:59.189Z,62.72
2022-10-05T17:06:01.488Z,64.15
2022-10-05T17:08:49.489Z,60.15
2022-10-05T17:11:36.460Z,57.60
2022-10-05T17:14:16.146Z,57.32
2022-10-05T17:16:51.537Z,58.19
2022-10-05T17:19:22.632Z,58.92
2022-10-05T17:22:27.257Z,59.52
2022-10-05T17:25:07.500Z,60.08
2022-10-05T17:28:17.471Z,60.74
2022-10-05T17:30:50.480Z,60.81
2022-10-05T17:33:32.862Z,62.21
2022-10-05T17:36:05.137Z,64.42
2022-10-05T17:38:35.140Z,65.92
2022-10-05T17:41:16.420Z,62.74
2022-10-05T17:44:21.724Z,63.41
2022-10-05T17:46:59.961Z,64.08
2022-10-05T17:50:16.655Z,62.62
2022-10-05T17:53:55.859Z,58.26
2022-10-05T17:56:29.210Z,56.72
2022-10-05T17:59:09.271Z,57.30
2022-10-05T18:01:44.284Z,58.16
2022-10-05T18:04:21.071Z,59.04
2022-10-05T18:07:02.585Z,59.89
2022-10-05T18:09:51.283Z,61.01
2022-10-05T18:12:26.636Z,62.41
2022-10-05T18:15:09.726Z,62.28
2022-10-05T18:17:46.050Z,61.32
2022-10-05T18:20:32.047Z,60.42
2022-10-05T18:23:09.769Z,59.98
2022-10-05T18:26:20.892Z,60.01
2022-10-05T18:29:14.210Z,60.55
2022-10-05T18:32:06.202Z,61.21
2022-10-05T18:35:08.832Z,61.16
2022-10-05T18:38:12.140Z,61.06
2022-10-05T18:41:05.439Z,61.23
2022-10-05T18:43:56.937Z,61.07
2022-10-05T18:47:00.044Z,60.75
2022-10-05T18:49:53.727Z,61.29
2022-10-05T18:52:37.249Z,60.97
2022-10-05T18:55:12.189Z,60.70
2022-10-05T18:57:59.275Z,60.49
2022-10-05T19:00:51.867Z,64.64
2022-10-05T19:03:25.971Z,63.11
2022-10-05T19:06:15.918Z,62.01
2022-10-05T19:08:50.062Z,62.39
2022-10-05T19:11:40.082Z,58.68
2022-10-05T19:14:45.448Z,57.04
2022-10-05T19:17:46.465Z,57.41
2022-10-05T19:20:25.655Z,57.88
2022-10-05T19:23:30.444Z,59.19
2022-10-05T19:26:07.914Z,59.68
2022-10-05T19:29:09.350Z,63.31
2022-10-05T19:31:48.373Z,66.07
2022-10-05T19:34:35.606Z,63.31
2022-10-05T19:37:34.862Z,61.06
2022-10-05T19:40:21.290Z,60.06
2022-10-05T19:43:08.375Z,59.04
2022-10-05T19:45:45.657Z,58.02
2022-10-05T19:48:40.908Z,58.66
2022-10-05T19:51:34.305Z,58.93
2022-10-05T19:54:12.574Z,59.84
2022-10-05T19:56:50.358Z,61.75
2022-10-05T19:59:22.108Z,62.49
2022-10-05T20:01:53.505Z,63.03
2022-10-05T20:04:35.565Z,64.91
2022-10-05T20:07:04.873Z,65.09
2022-10-05T20:09:52.910Z,62.08
2022-10-05T20:12:23.170Z,59.93
2022-10-05T20:15:37.573Z,58.58
2022-10-05T20:19:15.125Z,57.67
2022-10-05T20:21:56.810Z,57.89
2022-10-05T20:24:27.667Z,59.42
2022-10-05T20:27:13.846Z,60.32
2022-10-05T20:29:44.978Z,63.72
2022-10-05T20:32:18.077Z,64.70
2022-10-05T20:34:47.894Z,63.92
2022-10-05T20:37:18.462Z,62.43
2022-10-05T20:39:48.098Z,61.30
2022-10-05T20:42:16.434Z,59.33
2022-10-05T20:44:44.785Z,57.65
2022-10-05T20:47:13.895Z,58.88
2022-10-05T20:49:42.308Z,60.07
2022-10-05T20:52:15.184Z,61.78
2022-10-05T20:54:43.763Z,63.67
2022-10-05T20:57:13.470Z,63.72
2022-10-05T20:59:41.591Z,61.48
2022-10-05T21:02:10.690Z,60.82
2022-10-05T21:04:41.499Z,60.00
2022-10-05T21:07:10.203Z,59.58
2022-10-05T21:09:39.560Z,59.38
2022-10-05T21:12:07.881Z,60.48
2022-10-05T21:14:37.907Z,62.17
2022-10-05T21:17:06.841Z,63.15
2022-10-05T21:19:39.577Z,62.19
2022-10-05T21:22:09.281Z,61.13
2022-10-05T21:24:39.395Z,60.45
2022-10-05T21:27:10.252Z,60.17
2022-10-05T21:29:41.079Z,59.05
2022-10-05T21:32:11.745Z,59.72
2022-10-05T21:34:41.424Z,60.96
2022-10-05T21:37:09.648Z,62.38
2022-10-05T21:39:37.740Z,62.98
2022-10-05T21:42:06.154Z,62.00
2022-10-05T21:44:34.245Z,61.06
2022-10-05T21:47:02.500Z,60.61
2022-10-05T21:49:31.216Z,59.94
2022-10-05T21:52:01.293Z,60.00
2022-10-05T21:54:29.692Z,60.05
2022-10-05T21:56:58.901Z,58.59
2022-10-05T21:59:29.660Z,59.47
2022-10-05T22:01:57.791Z,60.69
2022-10-05T22:04:26.120Z,61.84
2022-10-05T22:06:55.556Z,62.97
2022-10-05T22:09:23.708Z,62.98
2022-10-05T22:11:51.832Z,61.56
2022-10-05T22:14:19.939Z,61.44
2022-10-05T22:16:48.167Z,60.91
2022-10-05T22:19:19.479Z,59.15
2022-10-05T22:21:47.714Z,58.77
2022-10-05T22:24:15.845Z,59.83
2022-10-05T22:26:46.488Z,60.05
2022-10-05T22:29:16.267Z,62.45
2022-10-05T22:31:48.878Z,62.91
2022-10-05T22:34:18.015Z,62.39
2022-10-05T22:36:47.600Z,61.29
2022-10-05T22:39:16.416Z,60.55
2022-10-05T22:41:44.749Z,59.16
2022-10-05T22:44:13.067Z,59.56
2022-10-05T22:46:41.236Z,61.18
2022-10-05T22:49:09.656Z,62.21
2022-10-05T22:51:37.770Z,63.15
2022-10-05T22:54:06.117Z,62.39
2022-10-05T22:56:34.516Z,61.51
2022-10-05T22:59:02.570Z,61.11
2022-10-05T23:01:30.669Z,61.29
2022-10-05T23:03:58.913Z,59.91
2022-10-05T23:06:27.142Z,58.72
2022-10-05T23:08:55.271Z,59.83
2022-10-05T23:11:26.302Z,61.67
2022-10-05T23:13:56.973Z,62.75
2022-10-05T23:16:27.550Z,62.12
2022-10-05T23:18:56.158Z,61.44
2022-10-05T23:21:27.189Z,61.48
2022-10-05T23:23:55.912Z,61.30
2022-10-05T23:26:25.063Z,61.30
2022-10-05T23:28:53.501Z,61.17
2022-10-05T23:31:25.321Z,61.53
2022-10-05T23:33:53.887Z,62.14
2022-10-05T23:36:24.177Z,62.14
2022-10-05T23:38:52.634Z,61.81
2022-10-05T23:41:21.058Z,61.98
2022-10-05T23:43:49.555Z,61.90
2022-10-05T23:46:18.179Z,61.61
2022-10-05T23:48:46.299Z,61.57
2022-10-05T23:51:15.615Z,61.49
2022-10-05T23:53:44.048Z,61.85
2022-10-05T23:56:13.081Z,61.88
2022-10-05T23:58:41.175Z,61.84
